Weather History for Lewisburg, WV

Change the Weather History Date:

Sunday, April 13, 2014

  Actual Average Record
Temperature  
Mean Temperature 63 °F 49 °F  
Max Temperature 81 °F 62 °F 81 °F (1971)
Min Temperature 44 °F 36 °F 17 °F (1990)
Degree Days  
Heating Degree Days 2    
Month to date heating degree days 170  
Cooling Degree Days 0    
Month to date cooling degree days 0  
Year to date cooling degree days 0  
Growing Degree Days 12 (Base 50)    
Moisture  
Dew Point 43 °F    
Average Humidity 55    
Maximum Humidity 89    
Minimum Humidity 20    
Precipitation  
Precipitation 0.00 in 0.11 in 1.14 in (1949)
Month to date precipitation 0.92 1.40  
Year to date precipitation 5.60 10.88  
Snow  
Snow 0.00 in - - ()
Month to date snowfall 0.0  
Snow Depth 0.00 in    
Sea Level Pressure  
Sea Level Pressure 30.10 in    
Wind  
Wind Speed 6 mph (South)    
Max Wind Speed 14 mph    
Max Gust Speed 20 mph    
Visibility 10 miles    
Events      
T = Trace of Precipitation, MM = Missing Value Source: NWS Daily Summary

Daily Weather History Graph

Daily Weather History Graph

Search for Another Location

Airport:

Trip Planner

Search our weather history database for the weather conditions in past years. The results will help you decide how hot, cold, wet, or windy it might be!

Date:

Astronomy

Apr. 13, 2014 Rise Set
Actual Time 6:49 AM EDT 7:55 PM EDT
Civil Twilight 6:22 AM EDT 8:22 PM EDT
Nautical Twilight 5:50 AM EDT 8:54 PM EDT
Astronomical Twilight 5:16 AM EDT 9:28 PM EDT
Moon 6:33 PM EDT (4/13) 5:45 AM EDT (4/13)
Length of Visible Light 14h 00m
Length of Day
13h 06m
Waxing Gibbous, 97% of the Moon is Illuminated
Apr 13
Waxing Gibbous
Apr 15
Full
Apr 22
Last Quarter
Apr 29
New
May 6
First Quarter

Hourly Weather History & Observations

Time (EDT) Temp. Windchill Dew Point Humidity Pressure Visibility Wind Dir Wind Speed Gust Speed Precip Events Conditions
12:15 AM 60.1 °F - 43.0 °F 53% 30.12 in 10.0 mi SSW 3.5 mph - N/A   Clear
12:35 AM 59.7 °F - 42.8 °F 54% 30.12 in 10.0 mi Calm Calm - N/A   Clear
12:55 AM 60.1 °F - 42.4 °F 52% 30.12 in 10.0 mi Calm Calm - N/A   Clear
1:15 AM 59.9 °F - 42.3 °F 52% 30.12 in 10.0 mi Calm Calm - N/A   Clear
1:35 AM 59.2 °F - 42.1 °F 53% 30.12 in 10.0 mi Calm Calm - N/A   Clear
1:55 AM 51.8 °F - 42.8 °F 71% 30.11 in 10.0 mi Calm Calm - N/A   Clear
2:15 AM 50.5 °F - 43.5 °F 77% 30.11 in 10.0 mi Calm Calm - N/A   Clear
2:35 AM 50.4 °F - 43.3 °F 77% 30.11 in 10.0 mi Calm Calm - N/A   Clear
2:55 AM 48.9 °F - 42.6 °F 79% 30.10 in 10.0 mi Calm Calm - N/A   Clear
3:15 AM 47.5 °F - 41.7 °F 80% 30.10 in 10.0 mi NNE 4.6 mph - N/A   Clear
3:35 AM 46.4 °F - 41.4 °F 83% 30.10 in 10.0 mi Calm Calm - N/A   Clear
3:55 AM 46.8 °F - 42.8 °F 86% 30.11 in 10.0 mi NNE 3.5 mph - N/A   Clear
4:15 AM 46.4 °F - 42.8 °F 87% 30.11 in 10.0 mi Calm Calm - N/A   Clear
4:55 AM 45.5 °F - 40.6 °F 83% 30.11 in 10.0 mi Calm Calm - N/A   Clear
5:15 AM 44.6 °F 43.1 °F 41.4 °F 88% 30.11 in 10.0 mi NE 3.5 mph - N/A   Clear
5:35 AM 45.7 °F 43.4 °F 42.4 °F 88% 30.12 in 10.0 mi NNE 4.6 mph - N/A   Clear
5:55 AM 45.5 °F 44.2 °F 42.3 °F 88% 30.12 in 10.0 mi NNE 3.5 mph - N/A   Clear
6:15 AM 45.1 °F - 42.3 °F 90% 30.13 in 10.0 mi Calm Calm - N/A   Clear
6:35 AM 43.5 °F 41.9 °F 40.1 °F 88% 30.13 in 10.0 mi NE 3.5 mph - N/A   Clear
6:55 AM 44.2 °F 42.7 °F 41.7 °F 91% 30.14 in 10.0 mi NNE 3.5 mph - N/A   Clear
7:15 AM 44.8 °F 43.3 °F 42.1 °F 90% 30.15 in 10.0 mi NNE 3.5 mph - N/A   Clear
7:35 AM 44.8 °F - 41.7 °F 89% 30.15 in 10.0 mi Calm Calm - N/A   Clear
7:55 AM 47.7 °F - 44.6 °F 89% 30.15 in 10.0 mi NE 3.5 mph - N/A   Clear
8:15 AM 49.5 °F - 44.4 °F 83% 30.16 in 10.0 mi NNE 8.1 mph - N/A   Clear
8:35 AM 50.5 °F - 44.6 °F 80% 30.17 in 10.0 mi NNE 6.9 mph - N/A   Clear
8:55 AM 53.8 °F - 45.7 °F 74% 30.17 in 10.0 mi NE 3.5 mph - N/A   Clear
9:15 AM 56.8 °F - 45.9 °F 67% 30.18 in 10.0 mi NNE 5.8 mph - N/A   Clear
9:35 AM 59.7 °F - 47.1 °F 63% 30.18 in 10.0 mi NNE 4.6 mph - N/A   Clear
9:55 AM 61.5 °F - 45.5 °F 56% 30.18 in 10.0 mi NNE 4.6 mph - N/A   Clear
10:15 AM 65.1 °F - 45.1 °F 48% 30.18 in 10.0 mi Calm Calm - N/A   Clear
10:35 AM 66.6 °F - 45.7 °F 47% 30.19 in 10.0 mi Calm Calm - N/A   Clear
10:55 AM 66.9 °F - 44.6 °F 45% 30.18 in 10.0 mi Calm Calm - N/A   Clear
11:15 AM 69.3 °F - 46.0 °F 43% 30.18 in 10.0 mi South 4.6 mph - N/A   Clear
11:35 AM 69.3 °F - 43.5 °F 39% 30.17 in 10.0 mi South 6.9 mph - N/A   Clear
11:55 AM 70.0 °F - 43.3 °F 38% 30.17 in 10.0 mi South 6.9 mph - N/A   Clear
12:15 PM 70.9 °F - 43.5 °F 37% 30.15 in 10.0 mi SSW 5.8 mph - N/A   Clear
12:35 PM 72.3 °F - 40.6 °F 32% 30.14 in 10.0 mi South 4.6 mph - N/A   Clear
12:55 PM 72.7 °F - 39.9 °F 31% 30.13 in 10.0 mi South 6.9 mph - N/A   Clear
1:15 PM 73.2 °F - 39.2 °F 29% 30.12 in 10.0 mi South 5.8 mph - N/A   Clear
1:35 PM 75.0 °F - 40.3 °F 29% 30.11 in 10.0 mi SSW 9.2 mph - N/A   Clear
1:55 PM 75.7 °F - 38.3 °F 26% 30.10 in 10.0 mi SW 5.8 mph - N/A   Clear
2:15 PM 75.4 °F - 37.0 °F 25% 30.09 in 7.0 mi SSW 6.9 mph - N/A   Clear
2:35 PM 77.0 °F - 36.1 °F 23% 30.08 in 10.0 mi SW 3.5 mph - N/A   Clear
2:55 PM 77.2 °F - 36.3 °F 23% 30.07 in 10.0 mi SW 9.2 mph - N/A   Clear
3:15 PM 78.4 °F - 35.6 °F 21% 30.06 in 10.0 mi SW 10.4 mph 16.1 mph N/A   Clear
3:35 PM 78.8 °F - 34.9 °F 20% 30.05 in 10.0 mi SSW 6.9 mph - N/A   Clear
3:55 PM 80.4 °F - 35.6 °F 20% 30.05 in 10.0 mi South 10.4 mph - N/A   Clear
4:15 PM 79.3 °F - 37.2 °F 22% 30.04 in 10.0 mi SW 13.8 mph 18.4 mph N/A   Clear
4:35 PM 79.2 °F - 34.7 °F 20% 30.03 in 10.0 mi SW 11.5 mph 19.6 mph N/A   Clear
4:55 PM 78.3 °F - 37.8 °F 23% 30.03 in 10.0 mi SSW 11.5 mph - N/A   Clear
5:35 PM 76.8 °F - 42.8 °F 30% 30.04 in 10.0 mi South 16.1 mph - N/A   Clear
5:55 PM 74.8 °F - 42.3 °F 31% 30.04 in 10.0 mi South 11.5 mph 19.6 mph N/A   Clear
6:15 PM 74.3 °F - 42.4 °F 32% 30.04 in 10.0 mi South 5.8 mph - N/A   Clear
6:35 PM 73.9 °F - 42.8 °F 33% 30.05 in 10.0 mi SSE 9.2 mph - N/A   Clear
6:55 PM 73.4 °F - 42.3 °F 33% 30.04 in 10.0 mi SSE 8.1 mph - N/A   Clear
7:15 PM 72.5 °F - 43.9 °F 36% 30.04 in 10.0 mi South 5.8 mph - N/A   Clear
7:35 PM 71.2 °F - 44.6 °F 38% 30.05 in 10.0 mi South 6.9 mph 17.3 mph N/A   Clear
7:55 PM 70.7 °F - 44.4 °F 39% 30.04 in 10.0 mi South 9.2 mph - N/A   Clear
8:15 PM 69.8 °F - 45.0 °F 41% 30.04 in 10.0 mi South 11.5 mph - N/A   Clear
8:35 PM 68.7 °F - 45.5 °F 43% 30.04 in 10.0 mi South 6.9 mph - N/A   Clear
8:55 PM 68.5 °F - 46.0 °F 44% 30.05 in 10.0 mi South 11.5 mph - N/A   Clear
9:15 PM 67.3 °F - 46.6 °F 47% 30.05 in 10.0 mi South 8.1 mph - N/A   Clear
9:35 PM 66.9 °F - 46.9 °F 49% 30.05 in 10.0 mi South 8.1 mph - N/A   Clear
9:55 PM 66.2 °F - 47.3 °F 51% 30.05 in 10.0 mi South 9.2 mph 16.1 mph N/A   Clear
10:15 PM 66.0 °F - 47.3 °F 51% 30.05 in 10.0 mi South 9.2 mph - N/A   Clear
10:35 PM 65.5 °F - 47.3 °F 52% 30.06 in 10.0 mi South 6.9 mph - N/A   Clear
10:55 PM 64.9 °F - 47.5 °F 53% 30.06 in 10.0 mi South 8.1 mph - N/A   Clear
11:15 PM 64.4 °F - 47.3 °F 54% 30.05 in 10.0 mi South 6.9 mph - N/A   Clear
11:35 PM 64.6 °F - 47.3 °F 53% 30.04 in 10.0 mi South 6.9 mph - N/A   Clear
11:55 PM 64.6 °F - 47.3 °F 53% 30.03 in 10.0 mi South 4.6 mph - N/A   Clear